Time;durP1;ratioP1;P1;durP2;ratioP2;P2;SDS_P1;SDS_P2;PMS_P1;PMS_P2;Temp;Humidity;BMP_temperature;BMP_pressure;BME280_temperature;BME280_humidity;BME280_pressure;Samples;Min_cycle;Max_cycle;Signal;HPM_P1;HPM_P2
2023/05/02 00:00:14;;;;;;;4.75;1.65;;;;;;;;;;5052105;28;20039;-69
2023/05/02 00:02:41;;;;;;;2.70;1.45;;;;;;;;;;5055084;28;20383;-69
2023/05/02 00:05:07;;;;;;;4.93;1.70;;;;;;;;;;5055849;28;20440;-69
2023/05/02 00:07:34;;;;;;;4.80;1.80;;;;;;;;;;5055958;28;20439;-69
2023/05/02 00:10:01;;;;;;;3.35;1.80;;;;;;;;;;5056242;28;20025;-69
2023/05/02 00:12:28;;;;;;;5.95;2.08;;;;;;;;;;5056253;28;20059;-69
2023/05/02 00:14:54;;;;;;;2.83;1.70;;;;;;;;;;5055728;28;20033;-69
2023/05/02 00:17:20;;;;;;;2.95;1.60;;;;;;;;;;5056073;28;20025;-69
2023/05/02 00:19:47;;;;;;;2.33;1.80;;;;;;;;;;5055589;28;20024;-69
2023/05/02 00:22:13;;;;;;;1.92;1.63;;;;;;;;;;5055963;28;20047;-69
2023/05/02 00:24:39;;;;;;;3.42;1.60;;;;;;;;;;5055558;28;20020;-69
2023/05/02 00:27:06;;;;;;;3.25;1.70;;;;;;;;;;5055690;28;20024;-68
2023/05/02 00:29:32;;;;;;;2.40;1.50;;;;;;;;;;5055450;28;20053;-67
2023/05/02 00:31:58;;;;;;;2.83;1.50;;;;;;;;;;5055276;28;20045;-69
2023/05/02 00:34:31;;;;;;;3.00;1.85;;;;;;;;;;5055502;28;20055;-69
2023/05/02 00:36:57;;;;;;;2.20;1.45;;;;;;;;;;5055345;28;20460;-69
2023/05/02 00:39:24;;;;;;;2.47;1.70;;;;;;;;;;5055392;28;20021;-69
2023/05/02 00:41:57;;;;;;;2.55;1.50;;;;;;;;;;5055329;28;20501;-69
2023/05/02 00:44:23;;;;;;;4.60;1.83;;;;;;;;;;5055507;28;20028;-69
2023/05/02 00:46:50;;;;;;;3.20;1.98;;;;;;;;;;5054144;28;20021;-69
2023/05/02 00:49:16;;;;;;;2.92;2.13;;;;;;;;;;5054864;28;20029;-69
2023/05/02 00:51:43;;;;;;;3.85;1.75;;;;;;;;;;5054992;28;20505;-69
2023/05/02 00:54:11;;;;;;;5.68;1.60;;;;;;;;;;5055137;28;20026;-69
2023/05/02 00:56:37;;;;;;;2.33;2.00;;;;;;;;;;5055227;28;20025;-69
2023/05/02 00:59:04;;;;;;;3.55;1.88;;;;;;;;;;5055182;28;20023;-69
2023/05/02 01:01:54;;;;;;;2.55;1.70;;;;;;;;;;5055152;28;20033;-69
2023/05/02 01:04:20;;;;;;;3.45;2.10;;;;;;;;;;5032441;28;20506;-69
2023/05/02 01:06:56;;;;;;;2.60;1.83;;;;;;;;;;5033030;28;20134;-69
2023/05/02 01:09:37;;;;;;;2.58;1.90;;;;;;;;;;5032556;28;20047;-68
2023/05/02 01:12:32;;;;;;;3.03;1.80;;;;;;;;;;5015913;28;20037;-69
2023/05/02 01:15:02;;;;;;;3.42;1.95;;;;;;;;;;5019749;28;20503;-69
2023/05/02 01:17:31;;;;;;;3.75;1.95;;;;;;;;;;5032550;28;20033;-69
2023/05/02 01:19:59;;;;;;;7.20;2.40;;;;;;;;;;5032410;28;20021;-69
2023/05/02 01:22:29;;;;;;;7.68;2.00;;;;;;;;;;5032512;28;20038;-69
2023/05/02 01:25:12;;;;;;;4.10;2.00;;;;;;;;;;5032441;28;20409;-69
2023/05/02 01:27:53;;;;;;;5.00;2.25;;;;;;;;;;5032213;28;20046;-69
2023/05/02 01:30:20;;;;;;;4.75;2.13;;;;;;;;;;5032256;28;20045;-69
2023/05/02 01:32:48;;;;;;;3.33;1.85;;;;;;;;;;5031925;28;20490;-69
2023/05/02 01:35:15;;;;;;;3.67;1.80;;;;;;;;;;5032243;28;20040;-69
2023/05/02 01:37:44;;;;;;;3.30;1.95;;;;;;;;;;5032299;28;20486;-70
2023/05/02 01:40:11;;;;;;;3.78;1.95;;;;;;;;;;5032185;28;20033;-69
2023/05/02 01:42:39;;;;;;;3.25;1.98;;;;;;;;;;5034473;28;20079;-69
2023/05/02 01:45:07;;;;;;;4.60;2.10;;;;;;;;;;5034342;28;20049;-69
2023/05/02 01:47:35;;;;;;;3.35;2.17;;;;;;;;;;5033831;28;20079;-69
2023/05/02 01:50:03;;;;;;;3.92;1.65;;;;;;;;;;5033987;28;20534;-69
2023/05/02 01:52:29;;;;;;;2.22;1.88;;;;;;;;;;5034054;28;20053;-68
2023/05/02 01:54:58;;;;;;;3.00;1.92;;;;;;;;;;5033783;28;20026;-69
2023/05/02 01:57:25;;;;;;;3.33;2.17;;;;;;;;;;5034068;28;20034;-69
2023/05/02 01:59:52;;;;;;;2.80;2.10;;;;;;;;;;5034394;28;20025;-69
2023/05/02 02:02:19;;;;;;;3.88;1.88;;;;;;;;;;5053841;28;20035;-69
2023/05/02 02:04:46;;;;;;;2.90;1.73;;;;;;;;;;5053889;28;20090;-69
2023/05/02 02:07:13;;;;;;;5.25;2.38;;;;;;;;;;5053711;28;20479;-69
2023/05/02 02:09:40;;;;;;;2.60;1.70;;;;;;;;;;5053844;28;20032;-69
2023/05/02 02:12:11;;;;;;;7.07;1.80;;;;;;;;;;5053511;28;20033;-69
2023/05/02 02:14:38;;;;;;;2.88;1.70;;;;;;;;;;5053459;28;20039;-69
2023/05/02 02:17:11;;;;;;;6.28;2.30;;;;;;;;;;5053367;28;20055;-69
2023/05/02 02:19:39;;;;;;;5.07;1.90;;;;;;;;;;5053463;28;20016;-69
2023/05/02 02:22:07;;;;;;;4.43;1.80;;;;;;;;;;5053322;28;20029;-69
2023/05/02 02:24:36;;;;;;;2.58;1.88;;;;;;;;;;5053088;28;20017;-69
2023/05/02 02:27:02;;;;;;;4.40;2.08;;;;;;;;;;5053187;28;20424;-69
2023/05/02 02:29:28;;;;;;;3.97;1.80;;;;;;;;;;5053348;28;20029;-68
2023/05/02 02:31:55;;;;;;;3.00;1.90;;;;;;;;;;5052869;28;20044;-69
2023/05/02 02:34:21;;;;;;;3.38;2.05;;;;;;;;;;5053304;28;20055;-69
2023/05/02 02:36:53;;;;;;;4.85;1.98;;;;;;;;;;5053381;28;20025;-69
2023/05/02 02:39:38;;;;;;;2.75;1.98;;;;;;;;;;5053114;28;20028;-69
2023/05/02 02:42:13;;;;;;;4.97;1.70;;;;;;;;;;5052940;28;20021;-69
2023/05/02 02:44:39;;;;;;;5.70;2.55;;;;;;;;;;5052474;28;20020;-69
2023/05/02 02:47:09;;;;;;;3.33;2.03;;;;;;;;;;5052877;28;20037;-69
2023/05/02 02:49:35;;;;;;;2.85;1.90;;;;;;;;;;5053086;28;20086;-69
2023/05/02 02:52:17;;;;;;;2.80;2.08;;;;;;;;;;5052665;28;20032;-69
2023/05/02 02:54:49;;;;;;;3.42;2.40;;;;;;;;;;5052708;28;20375;-70
2023/05/02 02:57:16;;;;;;;2.17;1.73;;;;;;;;;;5051560;28;20512;-70
2023/05/02 02:59:46;;;;;;;2.85;1.83;;;;;;;;;;5052352;28;20029;-68
2023/05/02 03:02:16;;;;;;;2.70;1.83;;;;;;;;;;5051362;28;20039;-69
2023/05/02 03:04:44;;;;;;;2.75;1.80;;;;;;;;;;5052821;28;20028;-70
2023/05/02 03:07:10;;;;;;;2.20;1.75;;;;;;;;;;5052627;28;20021;-69
2023/05/02 03:09:40;;;;;;;3.47;1.80;;;;;;;;;;5052418;28;20059;-69
2023/05/02 03:12:06;;;;;;;3.35;1.90;;;;;;;;;;5052690;28;20029;-69
2023/05/02 03:14:33;;;;;;;5.68;2.03;;;;;;;;;;5052214;28;20020;-69
2023/05/02 03:16:59;;;;;;;5.93;1.70;;;;;;;;;;5052683;28;20021;-69
2023/05/02 03:19:26;;;;;;;3.83;2.00;;;;;;;;;;5052251;28;20478;-69
2023/05/02 03:21:52;;;;;;;3.72;2.00;;;;;;;;;;5052587;28;20025;-69
2023/05/02 03:24:18;;;;;;;4.05;1.58;;;;;;;;;;5052473;28;20025;-69
2023/05/02 03:26:46;;;;;;;3.42;1.60;;;;;;;;;;5052491;28;20021;-69
2023/05/02 03:29:13;;;;;;;6.20;2.10;;;;;;;;;;5052171;28;20025;-70
2023/05/02 03:31:39;;;;;;;2.60;1.90;;;;;;;;;;5052040;28;20040;-69
2023/05/02 03:34:05;;;;;;;3.95;1.70;;;;;;;;;;5051923;28;20016;-69
2023/05/02 03:36:32;;;;;;;4.40;2.05;;;;;;;;;;5051690;28;20078;-70
2023/05/02 03:38:58;;;;;;;3.33;1.77;;;;;;;;;;5051109;28;20021;-69
2023/05/02 03:41:24;;;;;;;2.83;1.60;;;;;;;;;;5052361;28;20093;-69
2023/05/02 03:43:51;;;;;;;4.45;1.55;;;;;;;;;;5051853;28;20466;-69
2023/05/02 03:46:17;;;;;;;4.15;1.67;;;;;;;;;;5051960;28;20061;-69
2023/05/02 03:48:45;;;;;;;2.47;1.63;;;;;;;;;;5052118;28;20028;-69
2023/05/02 03:51:12;;;;;;;2.92;1.70;;;;;;;;;;5052109;28;20037;-69
2023/05/02 03:53:38;;;;;;;2.83;1.95;;;;;;;;;;5051897;28;20539;-70
2023/05/02 03:56:06;;;;;;;3.38;1.42;;;;;;;;;;5051766;28;20021;-69
2023/05/02 03:58:35;;;;;;;4.05;1.90;;;;;;;;;;5051866;28;20039;-69
2023/05/02 04:01:01;;;;;;;3.08;1.83;;;;;;;;;;5052017;28;20013;-69
2023/05/02 04:03:27;;;;;;;2.30;1.60;;;;;;;;;;5051769;28;20389;-69
2023/05/02 04:05:54;;;;;;;13.00;2.05;;;;;;;;;;5051887;28;20028;-70
2023/05/02 04:08:20;;;;;;;3.53;1.70;;;;;;;;;;5051817;28;20478;-69
2023/05/02 04:10:47;;;;;;;5.63;1.95;;;;;;;;;;5051954;28;20029;-69
2023/05/02 04:13:13;;;;;;;4.80;1.88;;;;;;;;;;5051469;28;20423;-69
2023/05/02 04:15:39;;;;;;;2.75;1.70;;;;;;;;;;5051866;28;20019;-69
2023/05/02 04:18:06;;;;;;;2.58;1.60;;;;;;;;;;5051676;28;20375;-69
2023/05/02 04:20:33;;;;;;;5.85;1.95;;;;;;;;;;5051715;28;20039;-69
2023/05/02 04:22:59;;;;;;;2.10;1.50;;;;;;;;;;5052050;28;20033;-69
2023/05/02 04:25:26;;;;;;;5.38;1.90;;;;;;;;;;5051990;28;20017;-69
2023/05/02 04:27:52;;;;;;;3.42;1.65;;;;;;;;;;5051775;28;20058;-69
2023/05/02 04:30:18;;;;;;;5.55;1.95;;;;;;;;;;5051592;28;20041;-69
2023/05/02 04:32:45;;;;;;;7.45;2.38;;;;;;;;;;5051401;28;20037;-70
2023/05/02 04:35:11;;;;;;;4.50;1.98;;;;;;;;;;5051494;28;20025;-69
2023/05/02 04:37:37;;;;;;;5.72;2.17;;;;;;;;;;5051547;28;20036;-71
2023/05/02 04:40:05;;;;;;;3.95;2.10;;;;;;;;;;5051595;28;20021;-70
2023/05/02 04:42:31;;;;;;;2.85;1.73;;;;;;;;;;5051518;28;20027;-72
2023/05/02 04:44:57;;;;;;;2.42;1.80;;;;;;;;;;5051252;28;20520;-71
2023/05/02 04:47:24;;;;;;;4.30;1.70;;;;;;;;;;5052624;28;20029;-71
2023/05/02 04:49:50;;;;;;;4.13;2.45;;;;;;;;;;5055333;28;20078;-71
2023/05/02 04:52:17;;;;;;;3.28;1.20;;;;;;;;;;5053844;28;20051;-70
2023/05/02 04:54:43;;;;;;;4.47;1.60;;;;;;;;;;5055049;28;20017;-71
2023/05/02 04:57:10;;;;;;;2.72;1.60;;;;;;;;;;5055010;28;20029;-71
2023/05/02 04:59:37;;;;;;;7.30;2.00;;;;;;;;;;5054941;28;20469;-71
2023/05/02 05:02:03;;;;;;;4.38;1.83;;;;;;;;;;5055013;28;20037;-71
2023/05/02 05:04:30;;;;;;;3.90;1.77;;;;;;;;;;5055181;28;20013;-71
2023/05/02 05:06:56;;;;;;;3.50;1.60;;;;;;;;;;5055030;28;20075;-71
2023/05/02 05:09:23;;;;;;;4.05;1.98;;;;;;;;;;5053483;28;20017;-71
2023/05/02 05:11:49;;;;;;;2.88;1.77;;;;;;;;;;5055128;28;20044;-70
2023/05/02 05:14:15;;;;;;;3.65;1.70;;;;;;;;;;5055049;28;20051;-70
2023/05/02 05:16:42;;;;;;;7.70;2.55;;;;;;;;;;5054590;28;20025;-71
2023/05/02 05:19:08;;;;;;;5.80;2.03;;;;;;;;;;5054918;28;20033;-70
2023/05/02 05:21:35;;;;;;;5.50;2.15;;;;;;;;;;5055017;28;20024;-70
2023/05/02 05:24:02;;;;;;;4.07;1.83;;;;;;;;;;5054133;28;20021;-71
2023/05/02 05:26:28;;;;;;;3.97;1.83;;;;;;;;;;5054759;28;20438;-71
2023/05/02 05:28:54;;;;;;;3.55;1.77;;;;;;;;;;5054689;28;20023;-70
2023/05/02 05:31:22;;;;;;;3.65;1.80;;;;;;;;;;5054249;28;20040;-71
2023/05/02 05:33:49;;;;;;;6.90;1.45;;;;;;;;;;5054269;28;20500;-71
2023/05/02 05:36:16;;;;;;;2.85;1.67;;;;;;;;;;5054395;28;20079;-71
2023/05/02 05:38:42;;;;;;;2.05;1.52;;;;;;;;;;5054309;28;20021;-71
2023/05/02 05:41:09;;;;;;;5.15;2.28;;;;;;;;;;5054309;28;20490;-71
2023/05/02 05:43:36;;;;;;;3.22;2.00;;;;;;;;;;5054286;28;20028;-71
2023/05/02 05:46:02;;;;;;;4.47;2.00;;;;;;;;;;5053909;28;20050;-71
2023/05/02 05:48:29;;;;;;;4.93;1.90;;;;;;;;;;5054234;28;20013;-71
2023/05/02 05:50:55;;;;;;;2.67;1.40;;;;;;;;;;5053973;28;20075;-71
2023/05/02 05:53:21;;;;;;;4.55;1.60;;;;;;;;;;5053855;28;20505;-70
2023/05/02 05:55:48;;;;;;;4.22;1.85;;;;;;;;;;5053950;28;20477;-71
2023/05/02 05:58:14;;;;;;;3.67;1.52;;;;;;;;;;5054108;28;20524;-71
2023/05/02 06:00:41;;;;;;;1.83;1.40;;;;;;;;;;5053433;28;20014;-70
2023/05/02 06:03:07;;;;;;;2.88;1.40;;;;;;;;;;5054012;28;20071;-71
2023/05/02 06:05:33;;;;;;;4.93;1.75;;;;;;;;;;5053727;28;20561;-71
2023/05/02 06:08:00;;;;;;;7.15;2.90;;;;;;;;;;5053427;28;20025;-71
2023/05/02 06:10:26;;;;;;;4.18;1.85;;;;;;;;;;5053629;28;20033;-71
2023/05/02 06:12:53;;;;;;;9.15;2.20;;;;;;;;;;5054109;28;20032;-71
2023/05/02 06:15:19;;;;;;;8.70;2.75;;;;;;;;;;5053420;28;20021;-71
2023/05/02 06:17:45;;;;;;;11.13;2.67;;;;;;;;;;5053764;28;20021;-71
2023/05/02 06:20:12;;;;;;;7.50;2.22;;;;;;;;;;5053334;28;20023;-71
2023/05/02 06:22:38;;;;;;;10.95;2.28;;;;;;;;;;5053073;28;20029;-71
2023/05/02 06:25:06;;;;;;;10.88;2.20;;;;;;;;;;5051345;28;20033;-71
2023/05/02 06:27:32;;;;;;;7.47;2.13;;;;;;;;;;5042810;28;20033;-71
2023/05/02 06:29:58;;;;;;;4.97;1.50;;;;;;;;;;5044063;28;20037;-71
2023/05/02 06:32:25;;;;;;;8.20;1.63;;;;;;;;;;5052593;28;20271;-71
2023/05/02 06:34:51;;;;;;;5.97;1.25;;;;;;;;;;5052476;28;20021;-71
2023/05/02 06:37:17;;;;;;;1.80;0.80;;;;;;;;;;5049918;28;20017;-71
2023/05/02 06:39:44;;;;;;;5.65;1.00;;;;;;;;;;5049855;28;20482;-71
2023/05/02 06:42:10;;;;;;;3.60;1.30;;;;;;;;;;5052600;28;20055;-71
2023/05/02 06:44:36;;;;;;;2.08;1.00;;;;;;;;;;5051802;28;20024;-71
2023/05/02 06:47:05;;;;;;;1.92;0.80;;;;;;;;;;5053027;28;20025;-71
2023/05/02 06:49:31;;;;;;;2.67;0.80;;;;;;;;;;5053216;28;20017;-70
2023/05/02 06:51:58;;;;;;;1.00;0.68;;;;;;;;;;5052214;28;20408;-71
2023/05/02 06:54:25;;;;;;;5.38;0.60;;;;;;;;;;5052960;28;20025;-70
2023/05/02 06:56:51;;;;;;;1.13;0.70;;;;;;;;;;5050438;28;20033;-71
2023/05/02 06:59:18;;;;;;;0.60;0.60;;;;;;;;;;5047278;28;20494;-71
2023/05/02 07:01:44;;;;;;;2.63;0.88;;;;;;;;;;5047793;28;20035;-71
2023/05/02 07:04:10;;;;;;;1.02;0.80;;;;;;;;;;5038220;28;20034;-71
2023/05/02 07:06:36;;;;;;;1.58;0.68;;;;;;;;;;5036668;28;20045;-69
2023/05/02 07:09:03;;;;;;;0.95;0.80;;;;;;;;;;5051415;28;20023;-72
2023/05/02 07:11:29;;;;;;;1.92;0.80;;;;;;;;;;5051174;28;20044;-71
2023/05/02 07:13:56;;;;;;;1.33;1.00;;;;;;;;;;5050906;28;20031;-71
2023/05/02 07:16:23;;;;;;;1.25;0.80;;;;;;;;;;5053517;28;20039;-70
2023/05/02 07:18:49;;;;;;;0.88;0.85;;;;;;;;;;5071779;28;20032;-71
2023/05/02 07:21:17;;;;;;;1.15;0.80;;;;;;;;;;5071326;28;20082;-70
2023/05/02 07:23:44;;;;;;;3.05;0.80;;;;;;;;;;5071163;28;20409;-71
2023/05/02 07:26:10;;;;;;;1.63;0.70;;;;;;;;;;5071621;28;20025;-71
2023/05/02 07:28:37;;;;;;;3.67;0.88;;;;;;;;;;5071199;28;20034;-71
2023/05/02 07:31:03;;;;;;;1.30;0.70;;;;;;;;;;5040612;28;20053;-72
2023/05/02 07:33:30;;;;;;;2.22;1.10;;;;;;;;;;5041720;28;20026;-71
2023/05/02 07:35:56;;;;;;;1.05;0.70;;;;;;;;;;5039654;28;20468;-71
2023/05/02 07:38:22;;;;;;;2.38;0.60;;;;;;;;;;5068788;28;20032;-72
2023/05/02 07:40:49;;;;;;;0.80;0.68;;;;;;;;;;5071588;28;20026;-71
2023/05/02 07:43:15;;;;;;;0.70;0.50;;;;;;;;;;5071585;28;20044;-71
2023/05/02 07:45:41;;;;;;;0.95;0.60;;;;;;;;;;5071490;28;20031;-70
2023/05/02 07:48:08;;;;;;;1.48;0.70;;;;;;;;;;5071157;28;20023;-72
2023/05/02 07:50:34;;;;;;;1.67;0.63;;;;;;;;;;5071445;28;20028;-69
2023/05/02 07:53:00;;;;;;;1.88;0.80;;;;;;;;;;5070788;28;20465;-71
2023/05/02 07:55:27;;;;;;;1.70;0.73;;;;;;;;;;5071292;28;20031;-68
2023/05/02 07:57:53;;;;;;;2.15;0.73;;;;;;;;;;5071284;28;20025;-69
2023/05/02 08:00:20;;;;;;;1.90;0.65;;;;;;;;;;5049948;28;20393;-70
2023/05/02 08:02:46;;;;;;;2.80;0.70;;;;;;;;;;5042699;28;20017;-69
2023/05/02 08:05:13;;;;;;;1.25;0.60;;;;;;;;;;5043544;28;20041;-68
2023/05/02 08:07:39;;;;;;;0.98;0.55;;;;;;;;;;5050549;28;20025;-69
2023/05/02 08:10:06;;;;;;;2.65;0.73;;;;;;;;;;5051174;28;20035;-71
2023/05/02 08:12:37;;;;;;;0.50;0.50;;;;;;;;;;5051248;28;20440;-72
2023/05/02 08:15:07;;;;;;;0.70;0.70;;;;;;;;;;5050131;28;20056;-71
2023/05/02 08:17:33;;;;;;;;;;;;;;;;;;5059264;28;20031;-71
2023/05/02 08:20:00;;;;;;;4.97;0.80;;;;;;;;;;5070729;28;19909;-71
2023/05/02 08:22:26;;;;;;;0.77;0.60;;;;;;;;;;5072160;28;20550;-71
2023/05/02 08:24:52;;;;;;;1.00;0.70;;;;;;;;;;5071955;28;20036;-72
2023/05/02 08:27:19;;;;;;;1.20;0.80;;;;;;;;;;5055091;28;20017;-72
2023/05/02 08:29:45;;;;;;;1.25;0.60;;;;;;;;;;5054551;28;20040;-71
2023/05/02 08:32:12;;;;;;;0.50;0.50;;;;;;;;;;5053426;28;20101;-72
2023/05/02 08:34:38;;;;;;;0.85;0.68;;;;;;;;;;5054595;28;20025;-71
2023/05/02 08:37:12;;;;;;;1.33;0.80;;;;;;;;;;5050502;28;20025;-72
2023/05/02 08:39:38;;;;;;;3.08;0.70;;;;;;;;;;5042872;28;20024;-69
2023/05/02 08:42:08;;;;;;;0.73;0.70;;;;;;;;;;5050247;28;20516;-70
2023/05/02 08:44:34;;;;;;;0.87;0.57;;;;;;;;;;5053649;28;20025;-71
2023/05/02 08:47:01;;;;;;;1.40;0.70;;;;;;;;;;5054569;28;20021;-72
2023/05/02 08:49:29;;;;;;;0.73;0.52;;;;;;;;;;5053887;28;20020;-71
2023/05/02 08:51:56;;;;;;;0.75;0.73;;;;;;;;;;5058182;28;20036;-70
2023/05/02 08:54:24;;;;;;;1.98;0.88;;;;;;;;;;5053880;28;20027;-70
2023/05/02 08:56:51;;;;;;;2.15;1.00;;;;;;;;;;5054462;28;20030;-70
2023/05/02 08:59:17;;;;;;;1.15;0.60;;;;;;;;;;5054417;28;20031;-69
2023/05/02 09:01:45;;;;;;;0.90;0.80;;;;;;;;;;5053505;28;20039;-70
2023/05/02 09:04:11;;;;;;;2.22;0.85;;;;;;;;;;5052345;28;20409;-69
2023/05/02 09:06:38;;;;;;;2.88;0.80;;;;;;;;;;5053735;28;20043;-69
2023/05/02 09:09:04;;;;;;;0.63;0.60;;;;;;;;;;5052585;28;20031;-70
2023/05/02 09:11:30;;;;;;;2.15;0.70;;;;;;;;;;5036331;28;20037;-70
2023/05/02 09:14:02;;;;;;;1.52;0.77;;;;;;;;;;5036412;28;20511;-70
2023/05/02 09:16:29;;;;;;;0.98;0.90;;;;;;;;;;5036079;28;20021;-69
2023/05/02 09:18:57;;;;;;;1.80;0.82;;;;;;;;;;5036370;28;20104;-70
2023/05/02 09:21:35;;;;;;;3.13;0.82;;;;;;;;;;5036161;28;21574;-70
2023/05/02 09:24:03;;;;;;;2.60;0.70;;;;;;;;;;5034745;28;20029;-70
2023/05/02 09:26:31;;;;;;;2.42;0.70;;;;;;;;;;5042696;28;20093;-70
2023/05/02 09:28:58;;;;;;;1.17;0.88;;;;;;;;;;5053603;28;20623;-68
2023/05/02 09:31:25;;;;;;;2.88;0.70;;;;;;;;;;5053404;28;20448;-69
2023/05/02 09:33:54;;;;;;;1.27;0.80;;;;;;;;;;5052523;28;20053;-70
2023/05/02 09:36:21;;;;;;;1.20;0.70;;;;;;;;;;5053699;28;20397;-70
2023/05/02 09:38:48;;;;;;;0.98;0.80;;;;;;;;;;5053477;28;20029;-70
2023/05/02 09:41:16;;;;;;;1.20;1.00;;;;;;;;;;5059753;28;20021;-70
2023/05/02 09:43:43;;;;;;;1.77;0.70;;;;;;;;;;5070483;28;20451;-69
2023/05/02 09:46:10;;;;;;;1.25;0.90;;;;;;;;;;5048616;28;20028;-69
2023/05/02 09:48:53;;;;;;;1.63;0.90;;;;;;;;;;5040083;28;20021;-69
2023/05/02 09:51:20;;;;;;;4.78;1.02;;;;;;;;;;5039916;28;20041;-70
2023/05/02 09:53:47;;;;;;;1.73;0.88;;;;;;;;;;5053344;28;20047;-70
2023/05/02 09:56:13;;;;;;;5.28;0.98;;;;;;;;;;5050574;28;20037;-69
2023/05/02 09:58:40;;;;;;;3.25;0.90;;;;;;;;;;5044756;28;20028;-68
2023/05/02 10:01:06;;;;;;;1.17;0.70;;;;;;;;;;5047015;28;20037;-69
2023/05/02 10:03:36;;;;;;;1.00;0.90;;;;;;;;;;5053093;28;20390;-69
2023/05/02 10:06:03;;;;;;;1.50;0.82;;;;;;;;;;5053038;28;20217;-71
2023/05/02 10:08:32;;;;;;;1.05;0.73;;;;;;;;;;5053275;28;20440;-69
2023/05/02 10:10:59;;;;;;;0.85;0.70;;;;;;;;;;5043607;28;20032;-71
2023/05/02 10:13:30;;;;;;;0.93;0.70;;;;;;;;;;5039912;28;20033;-70
2023/05/02 10:16:06;;;;;;;0.60;0.60;;;;;;;;;;5041956;28;20364;-71
2023/05/02 10:18:38;;;;;;;0.90;0.80;;;;;;;;;;5033418;28;20026;-70
2023/05/02 10:21:08;;;;;;;1.35;0.80;;;;;;;;;;5033338;28;20017;-70
2023/05/02 10:23:35;;;;;;;2.67;0.80;;;;;;;;;;5033431;28;20103;-70
2023/05/02 10:26:01;;;;;;;2.10;0.80;;;;;;;;;;5033201;28;20028;-71
2023/05/02 10:28:29;;;;;;;0.88;0.70;;;;;;;;;;5033198;28;20035;-70
2023/05/02 10:30:55;;;;;;;1.75;0.57;;;;;;;;;;5033023;28;20049;-70
2023/05/02 10:33:22;;;;;;;1.33;0.88;;;;;;;;;;5032927;28;20482;-71
2023/05/02 10:35:49;;;;;;;1.42;0.90;;;;;;;;;;5033327;28;20397;-70
2023/05/02 10:38:18;;;;;;;2.92;1.08;;;;;;;;;;5033162;28;20042;-70
2023/05/02 10:40:47;;;;;;;0.73;0.73;;;;;;;;;;5033324;28;20022;-71
2023/05/02 10:43:14;;;;;;;;;;;;;;;;;;5033528;28;20031;-70
2023/05/02 10:45:40;;;;;;;1.42;0.98;;;;;;;;;;5033178;28;19909;-70
2023/05/02 10:48:21;;;;;;;0.98;0.80;;;;;;;;;;5032910;28;20029;-70
2023/05/02 10:50:47;;;;;;;2.28;0.90;;;;;;;;;;5032880;28;20074;-70
2023/05/02 10:53:23;;;;;;;1.02;0.80;;;;;;;;;;5033254;28;20037;-70
2023/05/02 10:56:08;;;;;;;0.95;0.80;;;;;;;;;;5033194;28;20024;-70
2023/05/02 10:58:35;;;;;;;1.67;0.75;;;;;;;;;;5032544;28;20029;-71
2023/05/02 11:01:20;;;;;;;2.42;0.63;;;;;;;;;;5042513;28;20025;-70
2023/05/02 11:03:54;;;;;;;1.17;0.60;;;;;;;;;;5052693;28;20017;-70
2023/05/02 11:06:20;;;;;;;1.30;0.60;;;;;;;;;;5052997;28;20025;-70
2023/05/02 11:08:47;;;;;;;1.17;0.90;;;;;;;;;;5052592;28;20492;-70
2023/05/02 11:11:32;;;;;;;0.93;0.70;;;;;;;;;;5052661;28;20039;-70
2023/05/02 11:13:58;;;;;;;1.13;0.75;;;;;;;;;;5052405;28;20021;-70
2023/05/02 11:16:24;;;;;;;0.77;0.70;;;;;;;;;;5052543;28;20512;-70
2023/05/02 11:19:00;;;;;;;1.50;1.00;;;;;;;;;;5052652;28;20074;-70
2023/05/02 11:21:28;;;;;;;2.53;0.77;;;;;;;;;;5052338;28;20024;-70
2023/05/02 11:24:13;;;;;;;1.20;0.82;;;;;;;;;;5046502;28;20009;-70
2023/05/02 11:26:39;;;;;;;1.05;0.70;;;;;;;;;;5050667;28;20070;-71
2023/05/02 11:29:06;;;;;;;0.73;0.60;;;;;;;;;;5051970;28;20070;-70
2023/05/02 11:31:32;;;;;;;0.82;0.77;;;;;;;;;;5046043;28;20036;-70
2023/05/02 11:33:59;;;;;;;2.47;0.90;;;;;;;;;;5050459;28;20029;-70
2023/05/02 11:36:29;;;;;;;0.65;0.65;;;;;;;;;;5046565;28;20405;-70
2023/05/02 11:38:55;;;;;;;1.60;0.63;;;;;;;;;;5048787;28;20441;-70
2023/05/02 11:41:21;;;;;;;0.70;0.70;;;;;;;;;;5046384;28;20017;-70
2023/05/02 11:43:48;;;;;;;1.05;0.95;;;;;;;;;;5047953;28;20558;-70
2023/05/02 11:46:16;;;;;;;1.40;0.80;;;;;;;;;;5049330;28;20470;-70
2023/05/02 11:48:42;;;;;;;0.90;0.80;;;;;;;;;;5045756;28;20035;-70
2023/05/02 11:51:09;;;;;;;0.77;0.77;;;;;;;;;;5049535;28;20025;-69
2023/05/02 11:53:40;;;;;;;0.93;0.85;;;;;;;;;;5051388;28;20070;-71
2023/05/02 11:56:07;;;;;;;2.50;0.82;;;;;;;;;;5050684;28;20498;-70
2023/05/02 11:58:34;;;;;;;1.02;0.93;;;;;;;;;;5047860;28;20033;-68
2023/05/02 12:01:13;;;;;;;1.13;0.90;;;;;;;;;;5050952;28;20019;-69
2023/05/02 12:03:40;;;;;;;3.28;1.10;;;;;;;;;;5051433;28;20074;-69
2023/05/02 12:06:12;;;;;;;1.35;1.08;;;;;;;;;;5050514;28;20025;-70
2023/05/02 12:08:38;;;;;;;1.13;0.88;;;;;;;;;;5050899;28;20063;-70
2023/05/02 12:11:05;;;;;;;5.53;0.93;;;;;;;;;;5044593;28;20026;-71
2023/05/02 12:13:32;;;;;;;1.27;0.88;;;;;;;;;;5037206;28;20025;-69
2023/05/02 12:15:58;;;;;;;1.67;0.77;;;;;;;;;;5037475;28;20019;-69
2023/05/02 12:18:26;;;;;;;0.85;0.80;;;;;;;;;;5040731;28;20033;-68
2023/05/02 12:20:53;;;;;;;1.02;0.80;;;;;;;;;;5041140;28;20012;-68
2023/05/02 12:23:20;;;;;;;1.13;0.77;;;;;;;;;;5042361;28;20045;-68
2023/05/02 12:25:50;;;;;;;0.82;0.82;;;;;;;;;;5050911;28;20051;-69
2023/05/02 12:28:22;;;;;;;2.45;1.05;;;;;;;;;;5051026;28;20039;-69
2023/05/02 12:30:50;;;;;;;0.85;0.82;;;;;;;;;;5050723;28;20045;-69
2023/05/02 12:33:16;;;;;;;1.13;0.88;;;;;;;;;;5050388;28;20032;-68
2023/05/02 12:35:45;;;;;;;2.63;1.17;;;;;;;;;;5051079;28;20036;-68
2023/05/02 12:38:21;;;;;;;5.50;1.30;;;;;;;;;;5042695;28;20032;-69
2023/05/02 12:40:49;;;;;;;1.05;0.90;;;;;;;;;;5046985;28;20027;-69
2023/05/02 12:43:15;;;;;;;0.80;0.80;;;;;;;;;;5048523;28;20041;-69
2023/05/02 12:45:42;;;;;;;1.20;1.10;;;;;;;;;;5040155;28;20382;-69
2023/05/02 12:48:18;;;;;;;1.05;0.75;;;;;;;;;;5030869;28;20025;-69
2023/05/02 12:50:44;;;;;;;1.88;0.90;;;;;;;;;;5031666;28;20743;-69
2023/05/02 12:53:11;;;;;;;1.40;0.90;;;;;;;;;;5047199;28;20078;-69
2023/05/02 12:55:37;;;;;;;0.80;0.80;;;;;;;;;;5050485;28;20021;-68
2023/05/02 12:58:04;;;;;;;1.15;1.05;;;;;;;;;;5048797;28;20078;-69
2023/05/02 13:00:36;;;;;;;10.15;1.23;;;;;;;;;;5042319;28;20017;-69
2023/05/02 13:03:02;;;;;;;1.02;0.90;;;;;;;;;;5030896;28;20059;-69
2023/05/02 13:05:29;;;;;;;1.48;1.00;;;;;;;;;;5030787;28;20024;-69
2023/05/02 13:07:57;;;;;;;2.40;1.00;;;;;;;;;;5030277;28;20027;-69
2023/05/02 13:10:24;;;;;;;1.00;0.93;;;;;;;;;;5033174;28;20028;-68
2023/05/02 13:12:51;;;;;;;2.25;1.00;;;;;;;;;;5034302;28;20034;-68
2023/05/02 13:15:18;;;;;;;0.80;0.80;;;;;;;;;;5033989;28;20033;-68
2023/05/02 13:17:44;;;;;;;2.25;0.90;;;;;;;;;;5034228;28;20040;-68
2023/05/02 13:20:11;;;;;;;2.70;0.90;;;;;;;;;;5042797;28;20031;-68
2023/05/02 13:22:38;;;;;;;0.90;0.90;;;;;;;;;;5052517;28;20029;-68
2023/05/02 13:25:05;;;;;;;3.90;0.93;;;;;;;;;;5034920;28;20026;-68
2023/05/02 13:27:33;;;;;;;1.17;0.80;;;;;;;;;;5045170;28;20021;-68
2023/05/02 13:30:01;;;;;;;0.80;0.80;;;;;;;;;;5053430;28;20063;-68
2023/05/02 13:32:28;;;;;;;1.23;0.90;;;;;;;;;;5053992;28;20027;-68
2023/05/02 13:34:54;;;;;;;0.80;0.80;;;;;;;;;;5053433;28;20078;-68
2023/05/02 13:37:20;;;;;;;1.00;0.70;;;;;;;;;;5053168;28;20473;-68
2023/05/02 13:39:47;;;;;;;1.20;0.75;;;;;;;;;;5053680;28;20424;-68
2023/05/02 13:42:13;;;;;;;0.80;0.80;;;;;;;;;;5050854;28;20037;-68
2023/05/02 13:44:40;;;;;;;1.15;0.90;;;;;;;;;;5053110;28;20051;-68
2023/05/02 13:47:06;;;;;;;3.17;1.00;;;;;;;;;;5053384;28;20031;-69
2023/05/02 13:49:33;;;;;;;2.72;0.70;;;;;;;;;;5052843;28;20440;-70
2023/05/02 13:51:59;;;;;;;0.80;0.80;;;;;;;;;;5052768;28;20032;-68
2023/05/02 13:54:25;;;;;;;1.25;0.82;;;;;;;;;;5052639;28;20021;-70
2023/05/02 13:56:52;;;;;;;0.98;0.80;;;;;;;;;;5051781;28;20029;-68
2023/05/02 13:59:19;;;;;;;4.38;1.00;;;;;;;;;;5052866;28;20389;-69
2023/05/02 14:01:45;;;;;;;2.33;1.00;;;;;;;;;;5053125;28;20040;-69
2023/05/02 14:04:11;;;;;;;2.15;1.27;;;;;;;;;;5053722;28;20021;-70
2023/05/02 14:06:38;;;;;;;2.45;0.90;;;;;;;;;;5052625;28;20021;-69
2023/05/02 14:09:06;;;;;;;1.27;0.95;;;;;;;;;;5053926;28;20070;-69
2023/05/02 14:11:32;;;;;;;0.88;0.70;;;;;;;;;;5053105;28;20017;-69
2023/05/02 14:13:58;;;;;;;4.32;1.15;;;;;;;;;;5053597;28;20496;-69
2023/05/02 14:16:25;;;;;;;1.15;0.98;;;;;;;;;;5053955;28;20028;-69
2023/05/02 14:18:51;;;;;;;0.95;0.90;;;;;;;;;;5053556;28;20411;-69
2023/05/02 14:21:17;;;;;;;0.85;0.85;;;;;;;;;;5052800;28;20025;-69
2023/05/02 14:23:44;;;;;;;2.08;0.98;;;;;;;;;;5053231;28;20416;-69
2023/05/02 14:26:11;;;;;;;3.28;0.75;;;;;;;;;;5053650;28;20039;-69
2023/05/02 14:28:38;;;;;;;1.35;0.80;;;;;;;;;;5053540;28;20081;-69
2023/05/02 14:31:04;;;;;;;3.35;0.90;;;;;;;;;;5053156;28;20409;-69
2023/05/02 14:33:30;;;;;;;1.83;1.02;;;;;;;;;;5053380;28;20025;-69
2023/05/02 14:35:57;;;;;;;2.03;1.00;;;;;;;;;;5053270;28;20041;-69
2023/05/02 14:38:23;;;;;;;1.45;0.93;;;;;;;;;;5053511;28;20025;-69
2023/05/02 14:40:49;;;;;;;1.10;1.00;;;;;;;;;;5053031;28;20033;-69
2023/05/02 14:43:16;;;;;;;1.25;0.88;;;;;;;;;;5053104;28;20039;-69
2023/05/02 14:45:42;;;;;;;2.03;1.00;;;;;;;;;;5053200;28;20501;-69